createdAt,value
2022-09-03T00:02:17.004Z,0.80
2022-09-03T00:05:51.383Z,0.90
2022-09-03T00:09:27.238Z,1.00
2022-09-03T00:12:58.569Z,0.90
2022-09-03T00:16:41.416Z,0.90
2022-09-03T00:20:08.773Z,1.00
2022-09-03T00:23:45.615Z,1.00
2022-09-03T00:27:25.237Z,1.00
2022-09-03T00:31:18.518Z,1.10
2022-09-03T00:34:48.628Z,0.90
2022-09-03T00:38:18.083Z,1.20
2022-09-03T00:42:14.230Z,0.90
2022-09-03T00:45:52.894Z,1.10
2022-09-03T00:49:46.556Z,0.80
2022-09-03T00:53:41.351Z,0.90
2022-09-03T00:57:18.135Z,1.00
2022-09-03T01:00:43.945Z,1.00
2022-09-03T01:04:44.953Z,0.90
2022-09-03T01:08:26.614Z,1.20
2022-09-03T01:12:15.904Z,1.00
2022-09-03T01:16:16.472Z,0.90
2022-09-03T01:20:23.365Z,1.10
2022-09-03T01:24:23.047Z,1.10
2022-09-03T01:28:09.281Z,1.00
2022-09-03T01:31:41.490Z,0.70
2022-09-03T01:35:19.340Z,1.00
2022-09-03T01:38:45.511Z,0.90
2022-09-03T01:42:28.596Z,1.00
2022-09-03T01:46:08.630Z,1.20
2022-09-03T01:49:47.068Z,1.20
2022-09-03T01:53:46.874Z,1.20
2022-09-03T01:57:37.030Z,0.90
2022-09-03T02:01:10.447Z,1.50
2022-09-03T02:04:36.744Z,0.90
2022-09-03T02:08:13.198Z,1.00
2022-09-03T02:11:57.885Z,1.20
2022-09-03T02:15:49.392Z,1.10
2022-09-03T02:19:31.410Z,1.10
2022-09-03T02:22:54.332Z,1.20
2022-09-03T02:26:29.719Z,1.40
2022-09-03T02:30:07.802Z,1.20
2022-09-03T02:33:46.328Z,1.00
2022-09-03T02:37:20.240Z,1.20
2022-09-03T02:40:56.737Z,1.10
2022-09-03T02:44:37.768Z,1.10
2022-09-03T02:48:11.563Z,1.10
2022-09-03T02:51:47.087Z,1.20
2022-09-03T02:55:23.999Z,0.70
2022-09-03T02:59:02.050Z,1.00
2022-09-03T03:02:37.801Z,1.40
2022-09-03T03:06:14.547Z,1.10
2022-09-03T03:09:51.228Z,1.20
2022-09-03T03:13:29.704Z,1.40
2022-09-03T03:17:05.188Z,0.90
2022-09-03T03:20:42.202Z,1.00
2022-09-03T03:24:18.540Z,1.20
2022-09-03T03:28:14.565Z,1.20
2022-09-03T03:31:36.728Z,1.30
2022-09-03T03:35:32.296Z,1.30
2022-09-03T03:38:56.344Z,1.20
2022-09-03T03:42:34.394Z,1.00
2022-09-03T03:46:08.169Z,1.20
2022-09-03T03:49:44.584Z,1.10
2022-09-03T03:53:21.399Z,0.90
2022-09-03T03:56:57.920Z,1.30
2022-09-03T04:00:37.410Z,1.50
2022-09-03T04:04:11.715Z,1.50
2022-09-03T04:07:48.599Z,1.30
2022-09-03T04:11:26.203Z,1.10
2022-09-03T04:15:20.791Z,1.30
2022-09-03T04:18:42.608Z,1.20
2022-09-03T04:22:20.806Z,1.00
2022-09-03T04:25:55.930Z,1.30
2022-09-03T04:29:33.283Z,1.30
2022-09-03T04:33:30.150Z,1.30
2022-09-03T04:36:53.021Z,1.80
2022-09-03T04:40:28.944Z,1.50
2022-09-03T04:44:05.354Z,1.60
2022-09-03T04:47:42.364Z,1.40
2022-09-03T04:51:23.326Z,1.50
2022-09-03T04:55:15.252Z,1.60
2022-09-03T04:58:38.737Z,1.10
2022-09-03T05:02:15.644Z,1.50
2022-09-03T05:05:57.157Z,1.30
2022-09-03T05:09:27.357Z,2.00
2022-09-03T05:13:06.019Z,1.40
2022-09-03T05:16:41.065Z,1.70
2022-09-03T05:20:36.957Z,1.90
2022-09-03T05:24:00.472Z,1.50
2022-09-03T05:27:55.262Z,1.50
2022-09-03T05:31:19.013Z,1.20
2022-09-03T05:34:53.861Z,1.70
2022-09-03T05:38:30.717Z,1.70
2022-09-03T05:42:27.068Z,1.50
2022-09-03T05:45:49.191Z,1.50
2022-09-03T05:49:25.566Z,1.60
2022-09-03T05:53:01.984Z,1.50
2022-09-03T05:56:43.109Z,1.70
2022-09-03T06:00:16.272Z,1.60
2022-09-03T06:03:58.521Z,1.80
2022-09-03T06:07:29.532Z,1.50
2022-09-03T06:11:07.467Z,1.50
2022-09-03T06:14:42.736Z,1.70
2022-09-03T06:18:38.621Z,2.00
2022-09-03T06:22:00.148Z,1.90
2022-09-03T06:25:37.071Z,1.60
2022-09-03T06:29:14.428Z,1.80
2022-09-03T06:32:50.692Z,1.80
2022-09-03T06:36:27.263Z,1.90
2022-09-03T06:40:04.249Z,1.40
2022-09-03T06:43:42.814Z,1.40
2022-09-03T06:47:36.660Z,1.90
2022-09-03T06:51:01.261Z,2.20
2022-09-03T06:54:35.047Z,2.00
2022-09-03T06:58:12.962Z,1.80
2022-09-03T07:01:48.593Z,1.90
2022-09-03T07:05:28.705Z,1.90
2022-09-03T07:09:02.416Z,1.70
2022-09-03T07:12:38.861Z,1.90
2022-09-03T07:16:21.029Z,1.80
2022-09-03T07:19:52.384Z,1.60
2022-09-03T07:23:30.826Z,1.60
2022-09-03T07:27:06.823Z,2.60
2022-09-03T07:30:42.796Z,2.00
2022-09-03T07:34:22.201Z,1.80
2022-09-03T07:37:56.659Z,2.30
2022-09-03T07:41:33.647Z,1.90
2022-09-03T07:45:29.758Z,2.50
2022-09-03T07:48:56.438Z,2.40
2022-09-03T07:52:28.321Z,2.40
2022-09-03T07:56:10.806Z,1.90
2022-09-03T07:59:42.369Z,2.70
2022-09-03T08:03:19.048Z,2.40
2022-09-03T08:06:56.867Z,2.40
2022-09-03T08:10:38.343Z,2.30
2022-09-03T08:14:13.823Z,2.80
2022-09-03T08:17:45.860Z,2.40
2022-09-03T08:21:24.243Z,2.50
2022-09-03T08:25:00.237Z,2.90
2022-09-03T08:28:37.880Z,2.40
2022-09-03T08:32:34.284Z,2.70
2022-09-03T08:35:56.459Z,2.10
2022-09-03T08:39:33.140Z,2.60
2022-09-03T08:43:18.952Z,2.30
2022-09-03T08:46:51.736Z,2.50
2022-09-03T08:50:32.770Z,2.40
2022-09-03T08:54:00.947Z,2.10
2022-09-03T08:57:43.610Z,2.20
2022-09-03T09:01:56.986Z,2.20
2022-09-03T09:05:57.271Z,2.10
2022-09-03T09:09:41.802Z,2.30
2022-09-03T09:13:17.854Z,2.50
2022-09-03T09:16:57.004Z,3.20
2022-09-03T09:20:34.879Z,1.90
2022-09-03T09:24:03.802Z,1.90
2022-09-03T09:27:34.436Z,2.10
2022-09-03T09:31:16.135Z,1.90
2022-09-03T09:34:52.062Z,2.00
2022-09-03T09:38:30.052Z,2.40
2022-09-03T09:42:22.345Z,2.60
2022-09-03T09:45:46.346Z,2.90
2022-09-03T09:49:35.747Z,2.10
2022-09-03T09:53:14.650Z,2.20
2022-09-03T09:56:37.640Z,2.60
2022-09-03T10:00:17.242Z,2.00
2022-09-03T10:04:08.083Z,1.80
2022-09-03T10:08:18.005Z,2.40
2022-09-03T10:11:46.040Z,2.40
2022-09-03T10:15:30.668Z,2.50
2022-09-03T10:19:03.145Z,2.20
2022-09-03T10:22:35.301Z,2.10
2022-09-03T10:26:13.206Z,2.30
2022-09-03T10:29:43.411Z,2.50
2022-09-03T10:33:29.811Z,2.30
2022-09-03T10:37:17.171Z,2.30
2022-09-03T10:40:45.091Z,2.20
2022-09-03T10:44:55.127Z,2.10
2022-09-03T10:48:29.060Z,2.20
2022-09-03T10:52:23.454Z,2.10
2022-09-03T10:56:17.356Z,2.00
2022-09-03T11:00:12.372Z,2.30
2022-09-03T11:03:48.546Z,2.80
2022-09-03T11:07:17.696Z,2.50
2022-09-03T11:11:13.598Z,1.90
2022-09-03T11:14:43.155Z,2.30
2022-09-03T11:18:27.858Z,2.30
2022-09-03T11:22:10.578Z,2.00
2022-09-03T11:25:36.938Z,2.70
2022-09-03T11:29:38.225Z,2.70
2022-09-03T11:33:23.676Z,1.80
2022-09-03T11:36:48.099Z,1.90
2022-09-03T11:40:59.669Z,2.40
2022-09-03T11:44:21.594Z,2.30
2022-09-03T11:47:59.374Z,1.70
2022-09-03T11:51:37.858Z,2.10
2022-09-03T11:55:11.737Z,1.90
2022-09-03T11:59:01.259Z,2.10
2022-09-03T12:02:53.311Z,2.10
2022-09-03T12:07:20.267Z,3.20
2022-09-03T12:11:12.144Z,4.10
2022-09-03T12:14:49.666Z,6.10
2022-09-03T12:18:33.474Z,8.90
2022-09-03T12:22:17.771Z,3.40
2022-09-03T12:26:07.535Z,3.30
2022-09-03T12:29:32.206Z,4.60
2022-09-03T12:33:24.561Z,2.50
2022-09-03T12:36:49.376Z,2.30
2022-09-03T12:44:31.481Z,2.50
2022-09-03T12:48:02.254Z,2.10
2022-09-03T12:51:50.897Z,2.60
2022-09-03T12:56:08.880Z,2.50
2022-09-03T12:59:54.330Z,2.60
2022-09-03T13:03:43.498Z,2.20
2022-09-03T13:07:33.650Z,2.00
2022-09-03T13:11:03.927Z,2.30
2022-09-03T13:14:52.796Z,2.30
2022-09-03T13:18:26.377Z,2.20
2022-09-03T13:22:11.164Z,2.70
2022-09-03T13:25:46.426Z,2.10
2022-09-03T13:29:35.336Z,1.80
2022-09-03T13:33:15.617Z,1.80
2022-09-03T13:36:50.255Z,2.10
2022-09-03T13:40:33.119Z,2.00
2022-09-03T13:44:37.931Z,2.20
2022-09-03T13:48:33.165Z,1.70
2022-09-03T13:52:04.254Z,1.60
2022-09-03T13:55:48.241Z,2.10
2022-09-03T13:59:19.844Z,1.90
2022-09-03T14:03:36.656Z,2.30
2022-09-03T14:07:25.326Z,1.60
2022-09-03T14:11:06.286Z,1.80
2022-09-03T14:15:16.082Z,1.70
2022-09-03T14:18:45.241Z,1.90
2022-09-03T14:22:24.265Z,1.90
2022-09-03T14:26:01.542Z,1.90
2022-09-03T14:29:31.370Z,2.00
2022-09-03T14:33:47.119Z,1.70
2022-09-03T14:37:24.113Z,1.80
2022-09-03T14:40:54.381Z,2.10
2022-09-03T14:44:39.838Z,1.60
2022-09-03T14:48:31.645Z,1.60
2022-09-03T14:52:22.493Z,1.50
2022-09-03T14:56:09.647Z,1.30
2022-09-03T15:00:19.934Z,1.50
2022-09-03T15:03:51.504Z,1.60
2022-09-03T15:07:32.969Z,1.90
2022-09-03T15:11:00.956Z,1.80
2022-09-03T15:14:46.598Z,1.40
2022-09-03T15:18:47.798Z,1.30
2022-09-03T15:22:49.958Z,1.30
2022-09-03T15:26:39.589Z,1.10
2022-09-03T15:30:21.395Z,1.40
2022-09-03T15:33:52.981Z,1.80
2022-09-03T15:37:40.566Z,1.60
2022-09-03T15:41:11.056Z,1.50
2022-09-03T15:44:54.971Z,1.90
2022-09-03T15:49:12.574Z,1.80
2022-09-03T15:52:45.896Z,2.10
2022-09-03T15:56:36.479Z,1.70
2022-09-03T16:00:19.103Z,2.00
2022-09-03T16:03:59.582Z,2.40
2022-09-03T16:07:37.524Z,2.40
2022-09-03T16:11:23.027Z,2.40
2022-09-03T16:15:00.403Z,2.00
2022-09-03T16:18:22.542Z,2.00
2022-09-03T16:22:18.837Z,2.30
2022-09-03T16:25:52.754Z,2.30
2022-09-03T16:29:26.046Z,2.30
2022-09-03T16:33:36.737Z,2.40
2022-09-03T16:37:23.479Z,2.40
2022-09-03T16:41:08.907Z,2.70
2022-09-03T16:44:39.901Z,3.10
2022-09-03T16:48:17.545Z,3.30
2022-09-03T16:51:52.849Z,6.10
2022-09-03T16:55:39.781Z,3.50
2022-09-03T16:59:31.781Z,3.10
2022-09-03T17:03:26.531Z,3.00
2022-09-03T17:07:18.104Z,3.40
2022-09-03T17:11:18.738Z,2.50
2022-09-03T17:15:22.767Z,2.40
2022-09-03T17:18:52.138Z,2.20
2022-09-03T17:22:52.942Z,2.80
2022-09-03T17:26:29.986Z,3.00
2022-09-03T17:30:03.160Z,3.70
2022-09-03T17:33:45.710Z,4.30
2022-09-03T17:37:26.801Z,4.60
2022-09-03T17:41:08.822Z,3.50
2022-09-03T17:44:45.867Z,2.80
2022-09-03T17:48:55.693Z,2.40
2022-09-03T17:52:35.245Z,2.60
2022-09-03T17:56:02.685Z,2.80
2022-09-03T17:59:55.888Z,2.70
2022-09-03T18:03:27.590Z,2.30
2022-09-03T18:07:10.340Z,2.20
2022-09-03T18:10:51.143Z,2.30
2022-09-03T18:14:40.124Z,2.40
2022-09-03T18:18:28.879Z,2.80
2022-09-03T18:22:09.118Z,3.50
2022-09-03T18:25:54.567Z,3.60
2022-09-03T18:30:05.321Z,2.50
2022-09-03T18:34:04.804Z,3.30
2022-09-03T18:37:46.890Z,3.70
2022-09-03T18:41:49.583Z,4.40
2022-09-03T18:50:17.792Z,5.40
2022-09-03T18:54:50.629Z,4.40
2022-09-03T18:59:09.519Z,5.40
2022-09-03T19:03:11.495Z,4.90
2022-09-03T19:07:15.059Z,12.50
2022-09-03T19:11:10.817Z,2.30
2022-09-03T19:15:22.977Z,8.10
2022-09-03T19:19:18.435Z,4.50
2022-09-03T19:23:17.997Z,4.30
2022-09-03T19:27:29.901Z,4.30
2022-09-03T19:31:39.445Z,3.90
2022-09-03T19:35:37.842Z,3.50
2022-09-03T19:39:25.459Z,6.40
2022-09-03T19:43:27.588Z,4.30
2022-09-03T19:47:12.939Z,4.70
2022-09-03T19:51:00.579Z,6.40
2022-09-03T19:54:45.217Z,5.90
2022-09-03T19:58:42.668Z,4.30
2022-09-03T20:02:25.240Z,3.90
2022-09-03T20:06:10.830Z,5.40
2022-09-03T20:10:15.876Z,4.90
2022-09-03T20:13:58.330Z,4.40
2022-09-03T20:17:42.687Z,4.00
2022-09-03T20:21:59.507Z,4.00
2022-09-03T20:25:28.732Z,4.50
2022-09-03T20:29:25.599Z,4.00
2022-09-03T20:33:22.729Z,5.00
2022-09-03T20:37:16.225Z,4.40
2022-09-03T20:41:07.132Z,3.00
2022-09-03T20:45:08.237Z,3.50
2022-09-03T20:49:03.685Z,4.30
2022-09-03T20:52:45.865Z,4.70
2022-09-03T20:56:29.939Z,3.90
2022-09-03T21:00:09.977Z,3.80
2022-09-03T21:04:02.380Z,3.10
2022-09-03T21:07:50.674Z,3.20
2022-09-03T21:11:31.101Z,3.20
2022-09-03T21:15:03.650Z,5.20
2022-09-03T21:18:39.642Z,3.70
2022-09-03T21:22:51.957Z,3.50
2022-09-03T21:26:32.954Z,3.40
2022-09-03T21:30:16.945Z,4.20
2022-09-03T21:34:10.718Z,2.70
2022-09-03T21:37:37.467Z,3.30
2022-09-03T21:41:49.612Z,2.50
2022-09-03T21:45:21.104Z,3.00
2022-09-03T21:48:56.070Z,3.20
2022-09-03T21:52:54.915Z,2.60
2022-09-03T21:56:38.621Z,2.80
2022-09-03T22:00:18.894Z,3.00
2022-09-03T22:03:43.042Z,2.90
2022-09-03T22:07:54.999Z,3.30
2022-09-03T22:11:29.873Z,3.20
2022-09-03T22:14:55.734Z,3.10
2022-09-03T22:18:49.821Z,3.20
2022-09-03T22:23:06.809Z,3.40
2022-09-03T22:26:38.347Z,2.90
2022-09-03T22:30:21.496Z,4.20
2022-09-03T22:34:08.398Z,3.30
2022-09-03T22:37:58.870Z,3.50
2022-09-03T22:41:49.142Z,3.50
2022-09-03T22:45:51.009Z,4.70
2022-09-03T22:49:54.875Z,5.20
2022-09-03T22:53:44.915Z,3.20
2022-09-03T22:57:10.796Z,2.70
2022-09-03T23:00:54.580Z,2.90
2022-09-03T23:04:44.382Z,3.10
2022-09-03T23:08:15.335Z,3.30
2022-09-03T23:11:51.415Z,2.70
2022-09-03T23:15:30.255Z,3.50
2022-09-03T23:18:59.918Z,3.20
2022-09-03T23:22:59.493Z,3.50
2022-09-03T23:26:51.886Z,3.40
2022-09-03T23:30:13.555Z,3.20
2022-09-03T23:33:55.380Z,3.60
2022-09-03T23:37:39.061Z,2.60
2022-09-03T23:41:48.791Z,2.60
2022-09-03T23:45:19.542Z,2.80
2022-09-03T23:49:06.031Z,3.60
2022-09-03T23:52:40.549Z,9.10
2022-09-03T23:56:17.874Z,4.10
